createdAt,value
2024-01-16T00:00:31.154Z,52.19
2024-01-16T00:01:31.093Z,50.75
2024-01-16T00:02:31.174Z,49.35
2024-01-16T00:03:31.184Z,51.90
2024-01-16T00:04:31.206Z,50.95
2024-01-16T00:05:31.331Z,52.81
2024-01-16T00:06:31.313Z,52.10
2024-01-16T00:07:31.337Z,51.84
2024-01-16T00:08:31.394Z,50.75
2024-01-16T00:09:31.429Z,50.88
2024-01-16T00:10:31.494Z,52.53
2024-01-16T00:11:31.566Z,50.30
2024-01-16T00:12:31.540Z,51.43
2024-01-16T00:13:31.613Z,52.48
2024-01-16T00:14:31.693Z,52.82
2024-01-16T00:15:31.677Z,52.37
2024-01-16T00:16:31.721Z,52.01
2024-01-16T00:17:31.847Z,51.43
2024-01-16T00:18:31.947Z,51.24
2024-01-16T00:19:31.876Z,52.26
2024-01-16T00:20:31.935Z,51.78
2024-01-16T00:21:31.966Z,51.64
2024-01-16T00:22:31.994Z,52.57
2024-01-16T00:23:32.101Z,52.35
2024-01-16T00:24:32.098Z,51.00
2024-01-16T00:25:32.139Z,51.43
2024-01-16T00:26:32.195Z,51.67
2024-01-16T00:27:32.215Z,51.71
2024-01-16T00:28:32.250Z,52.27
2024-01-16T00:29:32.385Z,51.04
2024-01-16T00:30:32.345Z,51.40
2024-01-16T00:31:32.377Z,51.86
2024-01-16T00:32:32.486Z,52.72
2024-01-16T00:33:32.527Z,53.63
2024-01-16T00:34:32.624Z,51.12
2024-01-16T00:35:32.649Z,52.25
2024-01-16T00:36:32.645Z,51.70
2024-01-16T00:37:32.675Z,51.85
2024-01-16T00:38:32.793Z,53.85
2024-01-16T00:39:32.794Z,52.12
2024-01-16T00:40:32.831Z,51.42
2024-01-16T00:41:32.924Z,51.81
2024-01-16T00:42:32.927Z,52.58
2024-01-16T00:43:33.009Z,51.47
2024-01-16T00:44:33.047Z,51.75
2024-01-16T00:45:33.106Z,52.24
2024-01-16T00:46:33.141Z,53.80
2024-01-16T00:47:33.257Z,51.22
2024-01-16T00:48:33.316Z,51.23
2024-01-16T00:49:33.373Z,50.49
2024-01-16T00:50:33.367Z,50.65
2024-01-16T00:51:33.408Z,51.65
2024-01-16T00:52:33.441Z,52.51
2024-01-16T00:53:33.526Z,50.71
2024-01-16T00:54:33.546Z,51.64
2024-01-16T00:55:33.588Z,51.67
2024-01-16T00:56:33.676Z,51.00
2024-01-16T00:57:33.701Z,51.47
2024-01-16T00:58:33.786Z,51.57
2024-01-16T00:59:33.884Z,52.55
2024-01-16T01:00:33.834Z,52.47
2024-01-16T01:01:33.889Z,50.62
2024-01-16T01:02:33.950Z,51.11
2024-01-16T01:03:34.074Z,51.09
2024-01-16T01:04:34.035Z,53.04
2024-01-16T01:05:34.172Z,51.50
2024-01-16T01:06:34.127Z,50.63
2024-01-16T01:07:34.168Z,50.84
2024-01-16T01:08:34.274Z,52.29
2024-01-16T01:09:34.294Z,51.25
2024-01-16T01:10:34.348Z,51.89
2024-01-16T01:11:34.414Z,51.53
2024-01-16T01:12:34.417Z,50.22
2024-01-16T01:13:34.495Z,50.47
2024-01-16T01:14:34.605Z,50.94
2024-01-16T01:15:34.583Z,51.88
2024-01-16T01:16:34.643Z,50.95
2024-01-16T01:17:34.815Z,51.62
2024-01-16T01:18:34.821Z,51.81
2024-01-16T01:19:34.849Z,51.11
2024-01-16T01:20:34.850Z,51.80
2024-01-16T01:21:34.870Z,51.94
2024-01-16T01:22:34.926Z,53.19
2024-01-16T01:23:34.997Z,52.59
2024-01-16T01:24:35.017Z,51.95
2024-01-16T01:25:35.079Z,51.33
2024-01-16T01:26:35.147Z,50.55
2024-01-16T01:27:35.171Z,49.71
2024-01-16T01:28:35.229Z,53.64
2024-01-16T01:29:35.305Z,51.30
2024-01-16T01:30:35.387Z,52.12
2024-01-16T01:31:35.428Z,52.74
2024-01-16T01:32:35.527Z,51.61
2024-01-16T01:33:35.588Z,51.49
2024-01-16T01:34:35.541Z,52.19
2024-01-16T01:35:35.624Z,51.54
2024-01-16T01:36:35.759Z,52.57
2024-01-16T01:37:35.806Z,52.51
2024-01-16T01:38:35.879Z,52.73
2024-01-16T01:39:35.814Z,50.02
2024-01-16T01:40:35.842Z,51.34
2024-01-16T01:41:35.957Z,52.42
2024-01-16T01:42:35.944Z,52.50
2024-01-16T01:43:35.987Z,51.48
2024-01-16T01:44:36.092Z,53.16
2024-01-16T01:45:36.095Z,51.68
2024-01-16T01:46:36.394Z,50.46
2024-01-16T01:47:36.274Z,52.46
2024-01-16T01:48:36.478Z,53.44
2024-01-16T01:49:36.314Z,50.18
2024-01-16T01:50:36.366Z,52.01
2024-01-16T01:51:36.391Z,50.86
2024-01-16T01:52:36.446Z,51.50
2024-01-16T01:53:36.523Z,51.94
2024-01-16T01:54:36.557Z,50.78
2024-01-16T01:55:36.601Z,50.81
2024-01-16T01:56:36.686Z,50.61
2024-01-16T01:57:36.695Z,51.35
2024-01-16T01:58:36.746Z,51.69
2024-01-16T01:59:36.852Z,50.66
2024-01-16T02:00:36.866Z,52.27
2024-01-16T02:01:36.905Z,50.91
2024-01-16T02:02:36.997Z,50.31
2024-01-16T02:03:37.075Z,51.36
2024-01-16T02:04:37.054Z,52.45
2024-01-16T02:05:37.143Z,52.32
2024-01-16T02:06:37.281Z,52.08
2024-01-16T02:07:37.208Z,50.83
2024-01-16T02:08:37.334Z,51.05
2024-01-16T02:09:37.306Z,51.34
2024-01-16T02:10:37.354Z,51.35
2024-01-16T02:11:37.495Z,51.62
2024-01-16T02:12:37.455Z,51.13
2024-01-16T02:13:37.584Z,52.85
2024-01-16T02:14:37.566Z,50.17
2024-01-16T02:15:37.608Z,50.66
2024-01-16T02:16:37.661Z,51.54
2024-01-16T02:17:37.822Z,51.53
2024-01-16T02:18:37.841Z,50.60
2024-01-16T02:19:37.845Z,51.46
2024-01-16T02:20:37.880Z,51.22
2024-01-16T02:21:38.470Z,52.23
2024-01-16T02:22:37.969Z,51.19
2024-01-16T02:23:38.081Z,50.99
2024-01-16T02:24:38.059Z,51.48
2024-01-16T02:25:38.111Z,52.58
2024-01-16T02:26:38.220Z,52.57
2024-01-16T02:27:38.222Z,51.02
2024-01-16T02:28:38.301Z,51.35
2024-01-16T02:29:38.344Z,52.17
2024-01-16T02:30:38.406Z,51.39
2024-01-16T02:31:38.423Z,50.06
2024-01-16T02:32:38.576Z,52.38
2024-01-16T02:33:38.555Z,51.91
2024-01-16T02:34:38.579Z,51.71
2024-01-16T02:35:38.701Z,51.35
2024-01-16T02:36:38.688Z,50.66
2024-01-16T02:37:38.721Z,52.75
2024-01-16T02:38:38.832Z,50.82
2024-01-16T02:39:38.826Z,51.97
2024-01-16T02:40:38.877Z,51.33
2024-01-16T02:41:38.964Z,51.54
2024-01-16T02:42:38.966Z,50.57
2024-01-16T02:43:39.056Z,51.65
2024-01-16T02:44:39.099Z,52.44
2024-01-16T02:45:39.137Z,51.23
2024-01-16T02:46:39.166Z,53.20
2024-01-16T02:47:39.296Z,52.02
2024-01-16T02:48:39.392Z,50.35
2024-01-16T02:49:39.384Z,51.33
2024-01-16T02:50:39.452Z,51.92
2024-01-16T02:51:39.439Z,50.41
2024-01-16T02:52:39.490Z,51.68
2024-01-16T02:53:39.650Z,51.07
2024-01-16T02:54:39.601Z,50.85
2024-01-16T02:55:39.657Z,52.04
2024-01-16T02:56:39.800Z,50.52
2024-01-16T02:57:39.766Z,50.79
2024-01-16T02:58:39.832Z,51.26
2024-01-16T02:59:39.918Z,51.87
2024-01-16T03:00:39.986Z,50.20
2024-01-16T03:01:39.966Z,51.70
2024-01-16T03:02:40.098Z,51.84
2024-01-16T03:03:40.195Z,51.24
2024-01-16T03:04:40.136Z,51.00
2024-01-16T03:05:40.262Z,50.77
2024-01-16T03:06:40.406Z,51.80
2024-01-16T03:07:40.307Z,51.38
2024-01-16T03:08:40.429Z,51.75
2024-01-16T03:09:40.410Z,51.37
2024-01-16T03:10:40.466Z,51.23
2024-01-16T03:11:40.586Z,50.55
2024-01-16T03:12:40.606Z,50.82
2024-01-16T03:13:40.710Z,51.11
2024-01-16T03:14:40.786Z,51.21
2024-01-16T03:15:40.764Z,50.59
2024-01-16T03:16:40.818Z,51.46
2024-01-16T03:17:41.003Z,51.39
2024-01-16T03:18:40.949Z,51.41
2024-01-16T03:19:40.881Z,51.62
2024-01-16T03:20:40.948Z,51.46
2024-01-16T03:21:40.881Z,50.89
2024-01-16T03:22:40.881Z,52.93
2024-01-16T03:23:40.989Z,50.58
2024-01-16T03:24:40.937Z,52.53
2024-01-16T03:25:40.897Z,51.13
2024-01-16T03:26:40.918Z,51.87
2024-01-16T03:27:40.893Z,50.08
2024-01-16T03:28:40.946Z,51.40
2024-01-16T03:29:41.037Z,51.28
2024-01-16T03:30:41.185Z,51.92
2024-01-16T03:31:41.136Z,51.58
2024-01-16T03:32:41.238Z,51.87
2024-01-16T03:33:41.248Z,51.19
2024-01-16T03:34:41.337Z,50.39
2024-01-16T03:35:41.345Z,51.68
2024-01-16T03:36:41.356Z,51.48
2024-01-16T03:37:41.414Z,52.17
2024-01-16T03:38:41.609Z,50.99
2024-01-16T03:39:41.544Z,51.27
2024-01-16T03:40:41.598Z,50.97
2024-01-16T03:41:41.674Z,52.10
2024-01-16T03:42:41.702Z,51.17
2024-01-16T03:43:41.779Z,50.87
2024-01-16T03:44:41.884Z,50.75
2024-01-16T03:45:41.894Z,53.36
2024-01-16T03:46:41.947Z,52.20
2024-01-16T03:47:42.082Z,53.86
2024-01-16T03:48:42.207Z,51.78
2024-01-16T03:49:42.126Z,51.86
2024-01-16T03:50:42.197Z,53.08
2024-01-16T03:51:42.226Z,50.56
2024-01-16T03:52:42.273Z,51.96
2024-01-16T03:53:42.424Z,53.14
2024-01-16T03:54:42.386Z,50.97
2024-01-16T03:55:42.471Z,50.58
2024-01-16T03:56:42.522Z,50.19
2024-01-16T03:57:42.551Z,50.71
2024-01-16T03:58:42.612Z,51.41
2024-01-16T03:59:42.672Z,51.35
2024-01-16T04:00:42.756Z,51.01
2024-01-16T04:01:42.748Z,50.10
2024-01-16T04:02:42.864Z,51.17
2024-01-16T04:03:42.877Z,50.50
2024-01-16T04:04:42.911Z,51.75
2024-01-16T04:05:43.091Z,52.05
2024-01-16T04:06:43.026Z,50.36
2024-01-16T04:07:43.071Z,51.33
2024-01-16T04:08:43.200Z,51.04
2024-01-16T04:09:43.206Z,50.79
2024-01-16T04:10:43.231Z,51.84
2024-01-16T04:11:43.299Z,50.83
2024-01-16T04:12:43.340Z,50.24
2024-01-16T04:13:43.401Z,50.58
2024-01-16T04:14:43.541Z,51.65
2024-01-16T04:15:43.512Z,51.43
2024-01-16T04:16:43.540Z,52.29
2024-01-16T04:17:43.633Z,50.00
2024-01-16T04:18:43.775Z,50.66
2024-01-16T04:19:43.738Z,51.52
2024-01-16T04:20:43.805Z,50.84
2024-01-16T04:21:43.802Z,51.11
2024-01-16T04:22:43.872Z,50.86
2024-01-16T04:23:43.974Z,52.61
2024-01-16T04:24:43.967Z,52.69
2024-01-16T04:25:44.085Z,51.78
2024-01-16T04:26:44.229Z,50.54
2024-01-16T04:27:44.156Z,51.68
2024-01-16T04:28:44.218Z,51.65
2024-01-16T04:29:44.335Z,50.00
2024-01-16T04:30:44.325Z,52.10
2024-01-16T04:31:44.378Z,51.00
2024-01-16T04:32:44.478Z,51.35
2024-01-16T04:33:44.601Z,51.38
2024-01-16T04:34:44.507Z,51.74
2024-01-16T04:35:44.562Z,52.83
2024-01-16T04:36:44.622Z,52.08
2024-01-16T04:37:44.649Z,51.70
2024-01-16T04:38:52.030Z,50.00
2024-01-16T04:39:51.926Z,50.00
2024-01-16T04:40:51.923Z,50.00
2024-01-16T04:41:51.944Z,50.00
2024-01-16T04:42:51.937Z,50.00
2024-01-16T04:43:51.930Z,50.73
2024-01-16T04:44:51.982Z,51.44
2024-01-16T04:45:51.931Z,52.81
2024-01-16T04:46:51.941Z,53.76
2024-01-16T04:47:51.991Z,52.69
2024-01-16T04:48:51.988Z,51.47
2024-01-16T04:49:51.935Z,50.82
2024-01-16T04:50:51.987Z,52.30
2024-01-16T04:51:51.941Z,50.69
2024-01-16T04:52:54.437Z,52.44
2024-01-16T04:53:52.166Z,53.22
2024-01-16T04:54:52.179Z,51.61
2024-01-16T04:55:52.242Z,53.48
2024-01-16T04:56:52.291Z,50.47
2024-01-16T04:57:52.273Z,52.67
2024-01-16T04:58:52.318Z,52.43
2024-01-16T04:59:52.453Z,51.82
2024-01-16T05:00:52.394Z,52.34
2024-01-16T05:01:52.383Z,51.96
2024-01-16T05:02:52.770Z,53.82
2024-01-16T05:03:52.472Z,50.81
2024-01-16T05:04:52.468Z,51.47
2024-01-16T05:05:52.535Z,50.31
2024-01-16T05:06:52.500Z,50.94
2024-01-16T05:07:52.575Z,50.57
2024-01-16T05:08:52.592Z,50.58
2024-01-16T05:09:52.574Z,50.00
2024-01-16T05:10:52.597Z,52.11
2024-01-16T05:11:52.628Z,52.19
2024-01-16T05:12:52.642Z,52.22
2024-01-16T05:13:52.655Z,51.32
2024-01-16T05:14:52.730Z,52.18
2024-01-16T05:15:52.704Z,50.81
2024-01-16T05:16:52.694Z,51.70
2024-01-16T05:17:52.898Z,51.50
2024-01-16T05:18:52.761Z,50.41
2024-01-16T05:19:52.738Z,50.27
2024-01-16T05:20:52.846Z,51.16
2024-01-16T05:21:52.759Z,50.96
2024-01-16T05:22:52.768Z,51.83
2024-01-16T05:23:52.836Z,52.10
2024-01-16T05:24:52.828Z,50.18
2024-01-16T05:25:52.816Z,51.27
2024-01-16T05:26:52.881Z,51.17
2024-01-16T05:27:52.845Z,50.27
2024-01-16T05:28:52.902Z,52.65
2024-01-16T05:29:53.026Z,51.85
2024-01-16T05:30:53.003Z,52.03
2024-01-16T05:31:52.930Z,51.92
2024-01-16T05:32:53.108Z,52.45
2024-01-16T05:33:53.032Z,51.92
2024-01-16T05:34:52.942Z,50.83
2024-01-16T05:35:52.947Z,51.03
2024-01-16T05:36:52.950Z,52.64
2024-01-16T05:37:52.969Z,50.00
2024-01-16T05:38:53.010Z,52.02
2024-01-16T05:39:52.994Z,51.12
2024-01-16T05:40:52.998Z,50.86
2024-01-16T05:41:53.118Z,52.39
2024-01-16T05:42:53.016Z,51.56
2024-01-16T05:43:53.018Z,52.07
2024-01-16T05:44:53.113Z,51.88
2024-01-16T05:45:53.020Z,51.99
2024-01-16T05:46:53.025Z,52.27
2024-01-16T05:47:53.128Z,51.69
2024-01-16T05:48:53.159Z,51.76
2024-01-16T05:49:53.117Z,51.44
2024-01-16T05:50:53.092Z,51.66
2024-01-16T05:51:53.067Z,52.56
2024-01-16T05:52:53.057Z,51.43
2024-01-16T05:53:53.147Z,51.20
2024-01-16T05:54:53.064Z,51.65
2024-01-16T05:55:53.076Z,50.00
2024-01-16T05:56:53.150Z,51.80
2024-01-16T05:57:53.092Z,51.73
2024-01-16T05:58:53.151Z,52.62
2024-01-16T05:59:53.129Z,52.76
2024-01-16T06:00:53.116Z,51.16
2024-01-16T06:01:53.118Z,50.08
2024-01-16T06:02:53.186Z,51.68
2024-01-16T06:03:53.140Z,50.82
2024-01-16T06:04:53.116Z,50.81
2024-01-16T06:05:53.171Z,51.54
2024-01-16T06:06:53.214Z,51.98
2024-01-16T06:07:53.128Z,50.97
2024-01-16T06:08:53.222Z,51.15
2024-01-16T06:09:53.152Z,51.10
2024-01-16T06:10:53.148Z,50.63
2024-01-16T06:11:53.234Z,51.81
2024-01-16T06:12:53.163Z,50.61
2024-01-16T06:13:53.194Z,50.88
2024-01-16T06:14:53.279Z,51.70
2024-01-16T06:15:53.178Z,50.94
2024-01-16T06:16:53.193Z,51.42
2024-01-16T06:17:53.260Z,52.05
2024-01-16T06:18:53.263Z,50.61
2024-01-16T06:19:53.225Z,51.41
2024-01-16T06:20:53.245Z,51.47
2024-01-16T06:21:53.288Z,51.21
2024-01-16T06:22:53.259Z,51.17
2024-01-16T06:23:53.346Z,51.77
2024-01-16T06:24:53.320Z,50.05
2024-01-16T06:25:53.300Z,50.91
2024-01-16T06:26:53.358Z,50.00
2024-01-16T06:27:53.298Z,53.03
2024-01-16T06:28:53.350Z,52.13
2024-01-16T06:29:53.474Z,52.42
2024-01-16T06:30:53.454Z,52.98
2024-01-16T06:31:53.430Z,52.90
2024-01-16T06:32:53.521Z,51.76
2024-01-16T06:33:53.502Z,52.46
2024-01-16T06:34:53.468Z,52.33
2024-01-16T06:35:54.464Z,52.74
2024-01-16T06:36:53.441Z,52.18
2024-01-16T06:37:53.458Z,54.46
2024-01-16T06:38:53.505Z,53.27
2024-01-16T06:39:53.472Z,57.62
2024-01-16T06:40:53.510Z,57.96
2024-01-16T06:41:53.592Z,59.06
2024-01-16T06:42:53.604Z,60.83
2024-01-16T06:43:53.687Z,62.59
2024-01-16T06:44:53.842Z,69.44
2024-01-16T06:45:54.182Z,75.72
2024-01-16T06:46:53.857Z,84.36
2024-01-16T06:47:54.009Z,86.04
2024-01-16T06:48:54.133Z,87.79
2024-01-16T06:49:54.087Z,91.05
2024-01-16T06:50:54.256Z,95.94
2024-01-16T06:51:54.181Z,99.60
2024-01-16T06:52:54.219Z,106.53
2024-01-16T06:53:54.288Z,106.96
2024-01-16T06:54:54.266Z,109.82
2024-01-16T06:55:54.265Z,111.12
2024-01-16T06:56:54.369Z,112.71
2024-01-16T06:57:54.372Z,112.64
2024-01-16T06:58:54.433Z,108.97
2024-01-16T06:59:54.554Z,108.17
2024-01-16T07:00:54.606Z,105.89
2024-01-16T07:01:54.624Z,106.52
2024-01-16T07:02:54.659Z,103.29
2024-01-16T07:03:54.730Z,106.87
2024-01-16T07:04:55.066Z,104.12
2024-01-16T07:05:54.844Z,104.50
2024-01-16T07:06:54.775Z,102.69
2024-01-16T07:07:54.775Z,106.14
2024-01-16T07:08:54.770Z,105.88
2024-01-16T07:09:55.099Z,104.45
2024-01-16T07:10:54.794Z,101.15
2024-01-16T07:11:54.932Z,102.29
2024-01-16T07:12:54.862Z,100.79
2024-01-16T07:13:54.858Z,98.47
2024-01-16T07:14:54.963Z,96.15
2024-01-16T07:15:54.914Z,94.00
2024-01-16T07:16:54.957Z,94.49
2024-01-16T07:17:55.086Z,93.09
2024-01-16T07:18:55.178Z,90.46
2024-01-16T07:19:55.628Z,88.47
2024-01-16T07:20:55.157Z,89.29
2024-01-16T07:21:55.188Z,86.31
2024-01-16T07:22:55.245Z,88.90
2024-01-16T07:23:55.438Z,86.69
2024-01-16T07:24:55.592Z,85.67
2024-01-16T07:25:55.384Z,84.79
2024-01-16T07:26:55.491Z,85.01
2024-01-16T07:27:55.500Z,81.53
2024-01-16T07:28:55.532Z,77.12
2024-01-16T07:29:55.599Z,74.68
2024-01-16T07:30:55.681Z,68.68
2024-01-16T07:31:55.571Z,69.79
2024-01-16T07:32:55.802Z,67.26
2024-01-16T07:33:55.789Z,63.90
2024-01-16T07:34:55.706Z,64.64
2024-01-16T07:35:55.797Z,62.95
2024-01-16T07:36:55.817Z,62.98
2024-01-16T07:37:55.880Z,60.99
2024-01-16T07:38:55.985Z,60.66
2024-01-16T07:39:56.011Z,58.30
2024-01-16T07:40:55.983Z,61.94
2024-01-16T07:41:56.023Z,64.59
2024-01-16T07:42:56.035Z,65.87
2024-01-16T07:43:56.024Z,69.20
2024-01-16T07:44:56.127Z,73.89
2024-01-16T07:45:56.100Z,77.78
2024-01-16T07:46:56.087Z,80.35
2024-01-16T07:47:56.209Z,82.97
2024-01-16T07:48:56.197Z,89.86
2024-01-16T07:49:56.246Z,93.67
2024-01-16T07:50:56.401Z,96.05
2024-01-16T07:51:56.367Z,100.55
2024-01-16T07:52:56.468Z,104.69
2024-01-16T07:53:56.558Z,109.63
2024-01-16T07:54:56.528Z,113.17
2024-01-16T07:55:56.600Z,118.93
2024-01-16T07:56:56.721Z,127.80
2024-01-16T07:57:56.689Z,137.66
2024-01-16T07:58:56.730Z,147.53
2024-01-16T07:59:56.805Z,154.83
2024-01-16T08:00:56.834Z,163.93
2024-01-16T08:01:56.855Z,167.85
2024-01-16T08:02:56.937Z,175.50
2024-01-16T08:03:56.990Z,177.66
2024-01-16T08:04:56.966Z,183.95
2024-01-16T08:05:57.122Z,186.24
2024-01-16T08:06:57.045Z,186.17
2024-01-16T08:07:57.059Z,193.27
2024-01-16T08:08:57.207Z,194.11
2024-01-16T08:09:57.115Z,198.01
2024-01-16T08:10:57.157Z,198.86
2024-01-16T08:11:57.253Z,198.98
2024-01-16T08:12:57.259Z,200.00
2024-01-16T08:13:57.251Z,198.07
2024-01-16T08:14:57.356Z,198.43
2024-01-16T08:15:57.312Z,199.70
2024-01-16T08:16:57.323Z,200.29
2024-01-16T08:17:57.503Z,199.62
2024-01-16T08:18:57.432Z,200.00
2024-01-16T08:19:57.428Z,198.66
2024-01-16T08:20:57.497Z,197.77
2024-01-16T08:21:57.418Z,198.51
2024-01-16T08:22:57.445Z,198.31
2024-01-16T08:23:57.519Z,199.56
2024-01-16T08:24:57.490Z,200.00
2024-01-16T08:25:57.509Z,198.85
2024-01-16T08:26:57.606Z,200.00
2024-01-16T08:27:57.546Z,200.00
2024-01-16T08:28:57.558Z,198.96
2024-01-16T08:29:57.579Z,198.70
2024-01-16T08:30:57.665Z,199.59
2024-01-16T08:31:57.603Z,198.00
2024-01-16T08:32:57.642Z,198.43
2024-01-16T08:33:57.769Z,198.72
2024-01-16T08:34:57.678Z,198.94
2024-01-16T08:35:58.236Z,200.00
2024-01-16T08:36:57.748Z,198.37
2024-01-16T08:37:57.849Z,197.14
2024-01-16T08:38:57.880Z,198.46
2024-01-16T08:39:57.895Z,197.35
2024-01-16T08:40:57.953Z,193.17
2024-01-16T08:41:57.992Z,191.79
2024-01-16T08:42:58.444Z,191.70
2024-01-16T08:43:57.965Z,187.45
2024-01-16T08:44:58.753Z,183.45
2024-01-16T08:45:58.123Z,180.00
2024-01-16T08:46:58.171Z,176.75
2024-01-16T08:47:58.249Z,172.13
2024-01-16T08:48:58.204Z,169.20
2024-01-16T08:49:58.228Z,167.14
2024-01-16T08:50:58.701Z,168.88
2024-01-16T08:51:58.396Z,163.74
2024-01-16T08:52:58.373Z,161.63
2024-01-16T08:53:58.429Z,161.04
2024-01-16T08:54:58.450Z,159.68
2024-01-16T08:55:58.540Z,160.03
2024-01-16T08:56:58.576Z,161.22
2024-01-16T08:57:58.607Z,155.66
2024-01-16T08:58:58.658Z,153.41
2024-01-16T08:59:59.226Z,150.34
2024-01-16T09:00:58.778Z,148.91
2024-01-16T09:01:58.787Z,148.49
2024-01-16T09:03:00.424Z,144.93
2024-01-16T09:03:58.869Z,143.61
2024-01-16T09:04:59.321Z,141.09
2024-01-16T09:05:59.381Z,142.24
2024-01-16T09:06:59.014Z,139.07
2024-01-16T09:07:58.832Z,138.44
2024-01-16T09:08:58.873Z,135.52
2024-01-16T09:09:58.879Z,133.96
2024-01-16T09:10:58.860Z,130.38
2024-01-16T09:11:58.879Z,130.96
2024-01-16T09:12:58.854Z,129.96
2024-01-16T09:14:00.553Z,129.17
2024-01-16T09:14:58.894Z,128.41
2024-01-16T09:15:58.953Z,128.39
2024-01-16T09:16:58.905Z,125.15
2024-01-16T09:17:59.046Z,124.28
2024-01-16T09:18:59.086Z,125.73
2024-01-16T09:19:59.018Z,124.17
2024-01-16T09:20:59.177Z,121.16
2024-01-16T09:21:59.098Z,121.51
2024-01-16T09:22:59.131Z,122.57
2024-01-16T09:23:59.222Z,122.89
2024-01-16T09:24:59.176Z,119.85
2024-01-16T09:25:59.206Z,120.47
2024-01-16T09:26:59.296Z,118.89
2024-01-16T09:27:59.262Z,118.20
2024-01-16T09:28:59.385Z,119.08
2024-01-16T09:29:59.747Z,119.32
2024-01-16T09:30:59.414Z,119.04
2024-01-16T09:31:59.433Z,117.22
2024-01-16T09:32:59.540Z,118.79
2024-01-16T09:33:59.585Z,119.69
2024-01-16T09:34:59.754Z,118.81
2024-01-16T09:35:59.717Z,121.29
2024-01-16T09:36:59.721Z,117.60
2024-01-16T09:37:59.748Z,119.20
2024-01-16T09:39:00.740Z,120.06
2024-01-16T09:40:00.309Z,118.77
2024-01-16T09:40:59.973Z,119.62
2024-01-16T09:42:00.055Z,117.28
2024-01-16T09:43:00.121Z,117.55
2024-01-16T09:44:00.189Z,117.92
2024-01-16T09:45:00.307Z,114.06
2024-01-16T09:46:02.867Z,112.58
2024-01-16T09:47:00.305Z,113.00
2024-01-16T09:48:01.464Z,112.29
2024-01-16T09:49:00.382Z,111.58
2024-01-16T09:50:00.690Z,112.96
2024-01-16T09:51:00.459Z,113.09
2024-01-16T09:52:00.343Z,111.07
2024-01-16T09:53:00.562Z,110.16
2024-01-16T09:54:00.446Z,109.55
2024-01-16T09:55:00.375Z,108.00
2024-01-16T09:56:00.290Z,105.59
2024-01-16T09:57:00.558Z,104.96
2024-01-16T09:58:00.310Z,102.21
2024-01-16T09:59:00.298Z,100.37
2024-01-16T10:00:00.461Z,98.53
2024-01-16T10:01:00.333Z,99.02
2024-01-16T10:02:00.361Z,97.02
2024-01-16T10:03:00.809Z,95.49
2024-01-16T10:04:00.342Z,94.31
2024-01-16T10:05:00.305Z,93.38
2024-01-16T10:06:00.468Z,93.19
2024-01-16T10:07:00.375Z,91.70
2024-01-16T10:08:00.319Z,91.72
2024-01-16T10:09:00.416Z,88.14
2024-01-16T10:10:00.713Z,88.48
2024-01-16T10:11:00.336Z,87.57
2024-01-16T10:12:00.384Z,86.67
2024-01-16T10:13:00.343Z,85.91
2024-01-16T10:14:00.333Z,85.58
2024-01-16T10:15:00.423Z,84.64
2024-01-16T10:16:00.354Z,82.87
2024-01-16T10:17:00.464Z,83.13
2024-01-16T10:18:00.464Z,81.92
2024-01-16T10:19:00.473Z,81.15
2024-01-16T10:20:00.486Z,80.82
2024-01-16T10:21:00.461Z,80.49
2024-01-16T10:22:00.347Z,79.35
2024-01-16T10:23:00.401Z,79.46
2024-01-16T10:24:00.396Z,78.09
2024-01-16T10:25:00.357Z,77.84
2024-01-16T10:26:00.360Z,76.79
2024-01-16T10:27:00.378Z,77.59
2024-01-16T10:28:00.395Z,76.09
2024-01-16T10:29:00.392Z,76.56
2024-01-16T10:30:00.583Z,76.54
2024-01-16T10:31:00.583Z,75.45
2024-01-16T10:32:00.471Z,73.65
2024-01-16T10:33:00.456Z,68.38
2024-01-16T10:34:00.481Z,67.35
2024-01-16T10:35:00.469Z,71.55
2024-01-16T10:36:00.588Z,76.62
2024-01-16T10:37:00.485Z,79.71
2024-01-16T10:38:00.573Z,78.23
2024-01-16T10:39:00.622Z,81.48
2024-01-16T10:40:01.220Z,84.74
2024-01-16T10:41:00.777Z,85.27
2024-01-16T10:42:00.846Z,86.34
2024-01-16T10:43:01.015Z,88.99
2024-01-16T10:44:01.005Z,93.07
2024-01-16T10:45:01.040Z,94.71
2024-01-16T10:46:01.117Z,95.96
2024-01-16T10:47:01.172Z,98.49
2024-01-16T10:48:01.415Z,98.85
2024-01-16T10:49:01.420Z,108.50
2024-01-16T10:50:01.420Z,118.61
2024-01-16T10:51:01.423Z,122.83
2024-01-16T10:52:01.475Z,123.28
2024-01-16T10:53:01.541Z,124.85
2024-01-16T10:54:01.568Z,127.87
2024-01-16T10:55:01.663Z,130.02
2024-01-16T10:56:01.626Z,132.26
2024-01-16T10:57:01.683Z,133.00
2024-01-16T10:58:01.758Z,137.07
2024-01-16T10:59:01.642Z,140.00
2024-01-16T11:00:01.716Z,140.09
2024-01-16T11:01:01.687Z,145.25
2024-01-16T11:02:01.669Z,146.52
2024-01-16T11:03:01.688Z,146.34
2024-01-16T11:04:01.870Z,154.30
2024-01-16T11:05:01.812Z,157.39
2024-01-16T11:06:02.080Z,158.53
2024-01-16T11:07:01.923Z,163.45
2024-01-16T11:08:01.973Z,165.30
2024-01-16T11:09:03.271Z,167.40
2024-01-16T11:10:02.133Z,170.74
2024-01-16T11:11:02.243Z,172.48
2024-01-16T11:12:02.282Z,176.44
2024-01-16T11:13:02.328Z,177.34
2024-01-16T11:14:02.385Z,180.68
2024-01-16T11:15:02.610Z,182.07
2024-01-16T11:16:02.527Z,182.51
2024-01-16T11:17:02.579Z,185.43
2024-01-16T11:18:02.771Z,188.45
2024-01-16T11:20:14.304Z,195.65
2024-01-16T11:21:07.785Z,195.89
2024-01-16T11:22:03.825Z,195.99
2024-01-16T11:23:02.706Z,198.14
2024-01-16T11:24:02.796Z,203.83
2024-01-16T11:25:02.713Z,210.75
2024-01-16T11:26:02.725Z,229.77
2024-01-16T11:27:02.895Z,223.20
2024-01-16T11:28:02.748Z,212.50
2024-01-16T11:29:02.731Z,201.75
2024-01-16T11:30:02.864Z,200.00
2024-01-16T11:31:02.799Z,198.45
2024-01-16T11:33:02.844Z,200.00
2024-01-16T11:34:03.203Z,199.65
2024-01-16T11:35:02.820Z,198.54
2024-01-16T11:36:02.940Z,199.79
2024-01-16T11:37:02.738Z,199.37
2024-01-16T11:38:02.750Z,199.70
2024-01-16T11:39:02.799Z,199.88
2024-01-16T11:40:02.827Z,199.11
2024-01-16T11:41:02.792Z,199.12
2024-01-16T11:42:02.747Z,198.79
2024-01-16T11:43:02.770Z,200.15
2024-01-16T11:44:02.757Z,197.84
2024-01-16T11:45:02.825Z,199.95
2024-01-16T11:46:02.739Z,198.69
2024-01-16T11:47:02.743Z,198.52
2024-01-16T11:48:02.960Z,199.46
2024-01-16T11:49:02.941Z,198.87
2024-01-16T11:50:03.269Z,197.34
2024-01-16T11:51:04.830Z,198.57
2024-01-16T11:52:02.752Z,198.88
2024-01-16T11:53:02.755Z,199.01
2024-01-16T11:54:02.841Z,199.75
2024-01-16T11:55:02.783Z,198.71
2024-01-16T11:56:02.746Z,199.51
2024-01-16T11:57:02.798Z,198.78
2024-01-16T11:58:02.746Z,197.69
2024-01-16T11:59:02.809Z,196.74
2024-01-16T12:00:02.988Z,195.59
2024-01-16T12:01:02.846Z,192.65
2024-01-16T12:02:05.095Z,192.57
2024-01-16T12:03:02.799Z,189.67
2024-01-16T12:04:02.756Z,188.37
2024-01-16T12:05:02.771Z,187.62
2024-01-16T12:06:02.961Z,186.88
2024-01-16T12:07:02.951Z,183.50
2024-01-16T12:08:02.779Z,180.27
2024-01-16T12:09:02.828Z,177.95
2024-01-16T12:10:02.863Z,177.00
2024-01-16T12:11:02.795Z,176.02
2024-01-16T12:12:03.031Z,175.48
2024-01-16T12:13:05.292Z,174.95
2024-01-16T12:14:02.774Z,173.90
2024-01-16T12:15:02.852Z,172.90
2024-01-16T12:16:02.817Z,170.72
2024-01-16T12:17:02.778Z,168.69
2024-01-16T12:18:03.173Z,169.17
2024-01-16T12:19:02.938Z,168.89
2024-01-16T12:20:03.362Z,165.90
2024-01-16T12:21:02.956Z,165.37
2024-01-16T12:22:02.804Z,163.72
2024-01-16T12:23:02.812Z,165.34
2024-01-16T12:24:09.870Z,162.68
2024-01-16T12:25:03.803Z,162.09
2024-01-16T12:26:04.296Z,162.89
2024-01-16T12:27:02.828Z,160.34
2024-01-16T12:28:02.843Z,160.63
2024-01-16T12:29:02.808Z,160.39
2024-01-16T12:30:02.817Z,159.15
2024-01-16T12:31:03.166Z,158.50
2024-01-16T12:32:02.841Z,158.07
2024-01-16T12:33:08.039Z,156.54
2024-01-16T12:34:04.716Z,156.57
2024-01-16T12:35:02.897Z,155.24
2024-01-16T12:36:03.017Z,154.13
2024-01-16T12:37:02.833Z,153.19
2024-01-16T12:38:02.845Z,152.77
2024-01-16T12:39:02.841Z,152.27
2024-01-16T12:40:02.846Z,150.99
2024-01-16T12:41:02.941Z,150.53
2024-01-16T12:42:02.955Z,150.52
2024-01-16T12:43:02.959Z,147.82
2024-01-16T12:44:10.912Z,148.99
2024-01-16T12:45:04.125Z,147.78
2024-01-16T12:46:03.041Z,146.33
2024-01-16T12:47:03.217Z,143.90